KMTN

Martin State Airport

Baltimore, Maryland, USA
KMTN 192321Z 2000/2024 VRB03KT P6SM FEW060 FEW250 FM201500 11007KT P6SM FEW060 FEW250 FM202300 12008KT P6SM SCT045 AMD NOT SKED 2002/2012
Issued Valid From Valid To
Jul-19 @ 23:21 UTC
(an hour ago)
Jul-20 @ 00:00 UTC
(50 minutes ago)
Jul-21 @ 00:00 UTC
(in 23 hours)
Jul-20 @ 00:00 to Jul-20 @ 15:00
KMTN 192321Z 2000/2024 VRB03KT P6SM FEW060 FEW250
Wind Visibility Clouds
Variable at 3 knots Greater than 6 miles
  • Few at 6,000' AGL
  • Few at 25,000' AGL
From Jul-20 @ 15:00 to Jul-20 @ 23:00
FM201500 11007KT P6SM FEW060 FEW250
Wind Visibility Clouds
110° at 7 knots Greater than 6 miles
  • Few at 6,000' AGL
  • Few at 25,000' AGL
From Jul-20 @ 23:00 to Jul-21 @ 00:00
FM202300 12008KT P6SM SCT045 AMD NOT SKED 2002/2012
Wind Visibility Clouds
120° at 8 knots Greater than 6 miles
  • Scattered at 4,500' AGL
KMTN 192321Z 2000/2024 VRB03KT P6SM FEW060 FEW250 FM201500 11007KT P6SM FEW060 FEW250 FM202300 12008KT P6SM SCT045 AMD NOT SKED 2002/2012
Issued Jul-19 @ 23:21 UTC
(an hour ago)
Valid From Jul-20 @ 00:00 UTC
(50 minutes ago)
Valid To Jul-21 @ 00:00 UTC
(in 23 hours)
Jul-20 @ 00:00 - Jul-20 @ 15:00
Wind Visibility
Variable at 3 knots Greater than 6 miles
Clouds
  • Few at 6,000' AGL
  • Few at 25,000' AGL
From Jul-20 @ 15:00 - Jul-20 @ 23:00
Wind Visibility
110° at 7 knots Greater than 6 miles
Clouds
  • Few at 6,000' AGL
  • Few at 25,000' AGL
From Jul-20 @ 23:00 - Jul-21 @ 00:00
Wind Visibility
120° at 8 knots Greater than 6 miles
Clouds
  • Scattered at 4,500' AGL